createdAt,value
2022-08-22T00:06:20.392Z,3.17
2022-08-22T00:09:29.556Z,2.60
2022-08-22T00:12:36.849Z,2.80
2022-08-22T00:15:44.614Z,2.80
2022-08-22T00:18:52.358Z,2.53
2022-08-22T00:21:59.874Z,3.40
2022-08-22T00:25:25.494Z,2.53
2022-08-22T00:28:32.849Z,2.80
2022-08-22T00:31:40.825Z,2.53
2022-08-22T00:34:48.633Z,2.60
2022-08-22T00:38:02.549Z,2.77
2022-08-22T00:41:08.890Z,2.80
2022-08-22T00:44:29.268Z,2.67
2022-08-22T00:47:46.679Z,2.50
2022-08-22T00:51:31.349Z,2.67
2022-08-22T00:54:48.282Z,2.83
2022-08-22T00:58:16.549Z,2.73
2022-08-22T01:01:24.090Z,2.97
2022-08-22T01:04:51.099Z,2.93
2022-08-22T01:08:08.214Z,3.00
2022-08-22T01:11:22.817Z,2.77
2022-08-22T01:14:36.534Z,3.10
2022-08-22T01:17:57.508Z,2.60
2022-08-22T01:21:24.482Z,2.60
2022-08-22T01:25:22.454Z,2.90
2022-08-22T01:29:09.509Z,2.70
2022-08-22T01:32:57.158Z,2.63
2022-08-22T01:36:11.722Z,2.37
2022-08-22T01:39:40.406Z,2.37
2022-08-22T01:43:09.122Z,2.80
2022-08-22T01:46:27.117Z,2.67
2022-08-22T01:49:39.170Z,3.03
2022-08-22T01:52:46.247Z,2.47
2022-08-22T01:56:02.210Z,2.97
2022-08-22T01:59:11.078Z,3.00
2022-08-22T02:02:29.556Z,2.67
2022-08-22T02:05:37.350Z,2.63
2022-08-22T02:08:45.703Z,2.60
2022-08-22T02:11:52.229Z,2.70
2022-08-22T02:15:09.419Z,2.90
2022-08-22T02:18:17.120Z,2.60
2022-08-22T02:21:23.945Z,2.80
2022-08-22T02:24:36.040Z,3.27
2022-08-22T02:27:47.423Z,3.17
2022-08-22T02:30:54.266Z,2.90
2022-08-22T02:33:58.620Z,3.33
2022-08-22T02:37:06.809Z,2.60
2022-08-22T02:40:18.762Z,3.30
2022-08-22T02:43:26.024Z,3.30
2022-08-22T02:46:31.591Z,2.50
2022-08-22T02:49:43.800Z,3.10
2022-08-22T02:52:56.125Z,3.00
2022-08-22T02:56:02.059Z,2.60
2022-08-22T02:59:16.422Z,2.80
2022-08-22T03:02:33.136Z,2.50
2022-08-22T03:05:51.060Z,2.70
2022-08-22T03:09:04.660Z,3.03
2022-08-22T03:15:20.013Z,3.50
2022-08-22T03:18:26.910Z,3.43
2022-08-22T03:21:34.872Z,3.27
2022-08-22T03:24:42.182Z,2.73
2022-08-22T03:27:50.678Z,3.53
2022-08-22T03:31:01.629Z,3.27
2022-08-22T03:34:21.444Z,3.30
2022-08-22T03:37:27.622Z,3.00
2022-08-22T03:40:33.649Z,3.17
2022-08-22T03:44:00.086Z,2.87
2022-08-22T03:47:41.602Z,3.63
2022-08-22T03:51:31.749Z,3.23
2022-08-22T03:54:46.125Z,4.00
2022-08-22T03:57:58.352Z,3.10
2022-08-22T04:01:31.342Z,3.73
2022-08-22T04:05:16.218Z,3.70
2022-08-22T04:08:37.139Z,4.07
2022-08-22T04:12:15.772Z,3.53
2022-08-22T04:15:41.907Z,3.37
2022-08-22T04:18:54.345Z,3.50
2022-08-22T04:22:19.181Z,4.17
2022-08-22T04:25:26.134Z,3.50
2022-08-22T04:28:31.449Z,3.53
2022-08-22T04:31:36.736Z,3.90
2022-08-22T04:34:44.139Z,3.50
2022-08-22T04:37:51.824Z,3.90
2022-08-22T04:41:04.257Z,3.60
2022-08-22T04:44:13.461Z,4.00
2022-08-22T04:47:29.396Z,3.23
2022-08-22T04:50:43.126Z,3.67
2022-08-22T04:54:18.348Z,3.63
2022-08-22T04:57:27.570Z,3.90
2022-08-22T05:00:37.263Z,4.07
2022-08-22T05:03:44.945Z,3.47
2022-08-22T05:06:51.861Z,3.53
2022-08-22T05:09:57.106Z,3.90
2022-08-22T05:13:03.771Z,3.97
2022-08-22T05:16:11.968Z,4.17
2022-08-22T05:19:27.107Z,3.47
2022-08-22T05:22:38.326Z,3.70
2022-08-22T05:25:42.883Z,3.37
2022-08-22T05:28:50.196Z,3.40
2022-08-22T05:31:59.960Z,3.57
2022-08-22T05:35:03.236Z,4.00
2022-08-22T05:38:08.992Z,4.82
2022-08-22T05:41:17.711Z,3.77
2022-08-22T05:44:22.783Z,3.93
2022-08-22T05:47:29.107Z,4.20
2022-08-22T05:50:35.811Z,3.77
2022-08-22T05:53:42.974Z,5.20
2022-08-22T05:56:48.828Z,4.20
2022-08-22T05:59:57.776Z,4.03
2022-08-22T06:03:06.504Z,3.70
2022-08-22T06:06:12.563Z,4.07
2022-08-22T06:09:19.835Z,3.60
2022-08-22T06:12:27.146Z,3.63
2022-08-22T06:15:48.122Z,4.10
2022-08-22T06:18:51.972Z,3.80
2022-08-22T06:25:04.462Z,3.83
2022-08-22T06:28:09.812Z,4.50
2022-08-22T06:31:17.400Z,4.27
2022-08-22T06:34:25.666Z,3.70
2022-08-22T06:37:33.730Z,3.60
2022-08-22T06:40:38.034Z,3.20
2022-08-22T06:43:43.162Z,3.57
2022-08-22T06:46:47.816Z,3.53
2022-08-22T06:49:52.676Z,3.47
2022-08-22T06:52:59.657Z,3.03
2022-08-22T06:56:05.679Z,3.27
2022-08-22T06:59:10.711Z,3.00
2022-08-22T07:02:22.969Z,3.23
2022-08-22T07:05:28.767Z,2.50
2022-08-22T07:08:38.495Z,2.60
2022-08-22T07:11:43.626Z,2.10
2022-08-22T07:14:49.453Z,2.90
2022-08-22T07:17:53.676Z,2.73
2022-08-22T07:20:59.260Z,2.40
2022-08-22T07:24:03.551Z,2.33
2022-08-22T07:27:15.916Z,2.72
2022-08-22T07:30:27.660Z,2.67
2022-08-22T07:33:42.270Z,2.47
2022-08-22T07:36:48.782Z,2.60
2022-08-22T07:39:54.634Z,2.53
2022-08-22T07:43:03.460Z,2.20
2022-08-22T07:46:19.327Z,2.50
2022-08-22T07:49:24.999Z,2.40
2022-08-22T07:52:31.025Z,2.43
2022-08-22T07:55:34.151Z,2.57
2022-08-22T07:58:49.383Z,2.33
2022-08-22T08:01:54.444Z,2.10
2022-08-22T08:04:58.971Z,3.00
2022-08-22T08:08:05.320Z,2.37
2022-08-22T08:11:10.555Z,2.10
2022-08-22T08:14:16.621Z,2.50
2022-08-22T08:17:23.623Z,2.80
2022-08-22T08:20:28.085Z,2.90
2022-08-22T08:23:39.654Z,3.33
2022-08-22T08:27:05.293Z,2.90
2022-08-22T08:30:15.546Z,3.40
2022-08-22T08:33:26.285Z,2.53
2022-08-22T08:36:37.820Z,3.47
2022-08-22T08:39:44.583Z,3.40
2022-08-22T08:43:15.770Z,3.60
2022-08-22T08:46:40.574Z,3.47
2022-08-22T08:49:58.484Z,4.10
2022-08-22T08:53:19.747Z,3.53
2022-08-22T08:56:30.989Z,2.87
2022-08-22T08:59:44.230Z,2.80
2022-08-22T09:02:57.677Z,2.87
2022-08-22T09:06:16.751Z,3.65
2022-08-22T09:09:29.819Z,2.70
2022-08-22T09:12:56.010Z,3.28
2022-08-22T09:16:14.352Z,2.92
2022-08-22T09:19:47.200Z,2.88
2022-08-22T09:23:20.048Z,4.45
2022-08-22T09:26:29.224Z,2.63
2022-08-22T09:29:51.365Z,2.65
2022-08-22T09:33:00.918Z,2.70
2022-08-22T09:36:12.191Z,2.75
2022-08-22T09:39:17.575Z,2.70
2022-08-22T09:42:24.232Z,2.67
2022-08-22T09:45:40.003Z,2.90
2022-08-22T09:49:06.505Z,2.63
2022-08-22T09:52:34.052Z,2.65
2022-08-22T09:55:42.923Z,3.60
2022-08-22T09:58:54.158Z,2.80
2022-08-22T10:01:59.569Z,2.90
2022-08-22T10:05:13.742Z,2.63
2022-08-22T10:11:51.398Z,2.58
2022-08-22T10:15:06.745Z,2.60
2022-08-22T10:18:19.629Z,2.20
2022-08-22T10:21:28.616Z,2.40
2022-08-22T10:24:43.952Z,2.33
2022-08-22T10:27:56.745Z,2.72
2022-08-22T10:31:14.872Z,2.38
2022-08-22T10:34:21.352Z,2.70
2022-08-22T10:37:30.963Z,2.28
2022-08-22T10:40:39.368Z,2.35
2022-08-22T10:43:47.445Z,2.38
2022-08-22T10:46:54.956Z,2.35
2022-08-22T10:50:00.637Z,2.30
2022-08-22T10:53:28.979Z,2.50
2022-08-22T10:56:40.647Z,2.80
2022-08-22T10:59:48.031Z,2.30
2022-08-22T11:02:58.471Z,2.60
2022-08-22T11:06:02.892Z,2.80
2022-08-22T11:09:19.264Z,2.20
2022-08-22T11:12:34.714Z,2.50
2022-08-22T11:16:00.144Z,2.30
2022-08-22T11:19:23.885Z,2.35
2022-08-22T11:22:32.179Z,2.10
2022-08-22T11:25:44.576Z,1.90
2022-08-22T11:29:13.149Z,1.90
2022-08-22T11:32:25.546Z,2.30
2022-08-22T11:35:34.224Z,2.53
2022-08-22T11:38:40.444Z,2.42
2022-08-22T11:41:52.255Z,2.25
2022-08-22T11:44:59.885Z,2.42
2022-08-22T11:48:08.976Z,2.15
2022-08-22T11:51:16.398Z,2.50
2022-08-22T11:54:35.317Z,2.15
2022-08-22T11:57:44.221Z,2.90
2022-08-22T12:00:55.345Z,2.50
2022-08-22T12:04:05.532Z,2.00
2022-08-22T12:07:15.682Z,2.28
2022-08-22T12:10:21.475Z,2.60
2022-08-22T12:13:35.558Z,2.17
2022-08-22T12:16:47.470Z,2.08
2022-08-22T12:20:15.124Z,2.20
2022-08-22T12:23:49.012Z,2.47
2022-08-22T12:26:59.684Z,1.95
2022-08-22T12:30:14.811Z,1.80
2022-08-22T12:33:36.819Z,2.17
2022-08-22T12:36:58.004Z,1.95
2022-08-22T12:40:18.147Z,1.90
2022-08-22T12:43:42.554Z,2.13
2022-08-22T12:46:56.785Z,2.03
2022-08-22T12:50:14.967Z,2.15
2022-08-22T12:53:46.185Z,2.20
2022-08-22T12:56:55.289Z,1.95
2022-08-22T13:00:03.548Z,2.10
2022-08-22T13:03:10.746Z,2.20
2022-08-22T13:06:58.107Z,2.15
2022-08-22T13:10:04.793Z,1.58
2022-08-22T13:13:12.144Z,1.73
2022-08-22T13:16:18.034Z,1.80
2022-08-22T13:19:23.995Z,2.13
2022-08-22T13:22:29.077Z,1.95
2022-08-22T13:25:57.671Z,2.38
2022-08-22T13:29:24.566Z,2.20
2022-08-22T13:32:32.605Z,2.22
2022-08-22T13:35:45.347Z,2.05
2022-08-22T13:38:58.384Z,2.00
2022-08-22T13:42:14.304Z,2.20
2022-08-22T13:45:23.108Z,2.15
2022-08-22T13:48:28.622Z,1.88
2022-08-22T13:51:40.081Z,1.92
2022-08-22T13:54:55.798Z,1.80
2022-08-22T13:58:06.764Z,1.50
2022-08-22T14:01:25.510Z,1.80
2022-08-22T14:04:35.993Z,1.50
2022-08-22T14:07:42.991Z,1.90
2022-08-22T14:10:50.535Z,1.83
2022-08-22T14:17:03.771Z,1.60
2022-08-22T14:20:11.994Z,1.70
2022-08-22T14:23:18.256Z,1.77
2022-08-22T14:26:32.817Z,1.45
2022-08-22T14:29:44.233Z,1.90
2022-08-22T14:32:51.379Z,1.52
2022-08-22T14:35:57.101Z,1.60
2022-08-22T14:39:05.393Z,1.70
2022-08-22T14:42:13.276Z,1.50
2022-08-22T14:45:19.769Z,1.92
2022-08-22T14:48:30.872Z,1.70
2022-08-22T14:51:34.706Z,1.60
2022-08-22T14:54:38.850Z,1.63
2022-08-22T14:57:48.335Z,1.70
2022-08-22T15:00:54.035Z,1.60
2022-08-22T15:04:04.662Z,1.70
2022-08-22T15:07:07.938Z,2.08
2022-08-22T15:10:20.807Z,1.98
2022-08-22T15:13:25.757Z,2.03
2022-08-22T15:16:37.214Z,1.77
2022-08-22T15:19:46.888Z,1.58
2022-08-22T15:22:51.685Z,1.40
2022-08-22T15:25:59.089Z,1.42
2022-08-22T15:29:08.917Z,1.50
2022-08-22T15:32:13.006Z,1.70
2022-08-22T15:35:29.841Z,1.83
2022-08-22T15:38:36.501Z,1.38
2022-08-22T15:41:42.653Z,1.35
2022-08-22T15:44:47.949Z,1.52
2022-08-22T15:47:54.748Z,1.67
2022-08-22T15:51:00.221Z,1.63
2022-08-22T15:54:24.329Z,1.40
2022-08-22T15:57:30.237Z,1.25
2022-08-22T16:00:36.714Z,1.67
2022-08-22T16:03:57.391Z,1.88
2022-08-22T16:07:01.385Z,1.60
2022-08-22T16:10:12.806Z,1.60
2022-08-22T16:13:35.745Z,1.40
2022-08-22T16:16:57.475Z,1.70
2022-08-22T16:20:33.739Z,1.70
2022-08-22T16:24:09.585Z,1.70
2022-08-22T16:27:22.677Z,1.70
2022-08-22T16:30:37.371Z,1.50
2022-08-22T16:33:41.733Z,1.63
2022-08-22T16:36:47.588Z,1.80
2022-08-22T16:39:52.283Z,1.63
2022-08-22T16:43:12.870Z,1.70
2022-08-22T16:46:28.649Z,2.00
2022-08-22T16:49:56.576Z,1.75
2022-08-22T16:53:02.288Z,1.85
2022-08-22T16:56:14.724Z,1.67
2022-08-22T16:59:44.623Z,1.70
2022-08-22T17:02:56.494Z,1.60
2022-08-22T17:06:06.608Z,1.85
2022-08-22T17:09:22.097Z,1.92
2022-08-22T17:12:32.660Z,2.08
2022-08-22T17:15:49.593Z,1.80
2022-08-22T17:19:06.185Z,2.03
2022-08-22T17:22:13.834Z,2.20
2022-08-22T17:25:22.879Z,1.73
2022-08-22T17:28:34.420Z,1.92
2022-08-22T17:31:46.465Z,1.67
2022-08-22T17:34:56.981Z,1.90
2022-08-22T17:38:06.414Z,1.63
2022-08-22T17:41:15.834Z,1.67
2022-08-22T17:44:23.137Z,2.10
2022-08-22T17:47:32.670Z,2.25
2022-08-22T17:50:41.939Z,2.35
2022-08-22T17:53:48.273Z,1.85
2022-08-22T17:57:05.290Z,1.85
2022-08-22T18:00:17.034Z,2.20
2022-08-22T18:03:24.469Z,2.10
2022-08-22T18:06:31.290Z,2.10
2022-08-22T18:09:39.196Z,2.65
2022-08-22T18:12:46.470Z,2.33
2022-08-22T18:15:52.780Z,2.17
2022-08-22T18:19:01.755Z,2.70
2022-08-22T18:22:09.602Z,2.22
2022-08-22T18:25:31.646Z,2.72
2022-08-22T18:28:40.787Z,2.22
2022-08-22T18:31:49.277Z,2.20
2022-08-22T18:35:02.832Z,2.33
2022-08-22T18:38:18.268Z,2.33
2022-08-22T18:41:29.420Z,2.53
2022-08-22T18:44:36.442Z,2.40
2022-08-22T18:47:39.114Z,2.57
2022-08-22T18:50:43.214Z,2.30
2022-08-22T18:53:49.230Z,2.37
2022-08-22T18:56:54.669Z,2.80
2022-08-22T19:00:11.992Z,2.73
2022-08-22T19:03:26.989Z,3.03
2022-08-22T19:06:47.903Z,2.87
2022-08-22T19:10:07.364Z,2.63
2022-08-22T19:13:35.210Z,2.70
2022-08-22T19:17:02.057Z,2.73
2022-08-22T19:20:27.791Z,2.63
2022-08-22T19:23:47.563Z,2.67
2022-08-22T19:27:30.954Z,2.20
2022-08-22T19:30:48.646Z,2.30
2022-08-22T19:34:16.840Z,2.20
2022-08-22T19:37:32.134Z,1.87
2022-08-22T19:40:54.286Z,2.10
2022-08-22T19:43:57.150Z,2.67
2022-08-22T19:47:05.175Z,1.92
2022-08-22T19:50:14.697Z,2.50
2022-08-22T19:53:33.604Z,2.10
2022-08-22T19:56:50.516Z,2.03
2022-08-22T20:00:00.336Z,2.97
2022-08-22T20:03:08.336Z,2.70
2022-08-22T20:06:42.597Z,1.83
2022-08-22T20:09:45.483Z,1.87
2022-08-22T20:13:01.945Z,1.73
2022-08-22T20:16:13.444Z,2.13
2022-08-22T20:19:21.616Z,2.03
2022-08-22T20:22:26.547Z,1.90
2022-08-22T20:25:43.701Z,1.90
2022-08-22T20:28:52.336Z,2.17
2022-08-22T20:31:58.770Z,1.63
2022-08-22T20:35:02.949Z,2.27
2022-08-22T20:38:07.708Z,2.10
2022-08-22T20:41:17.427Z,1.93
2022-08-22T20:44:30.867Z,2.00
2022-08-22T20:47:40.877Z,2.22
2022-08-22T20:50:45.218Z,2.60
2022-08-22T20:53:52.311Z,2.28
2022-08-22T20:56:58.532Z,2.23
2022-08-22T21:00:12.223Z,2.43
2022-08-22T21:03:22.056Z,1.80
2022-08-22T21:06:31.665Z,1.90
2022-08-22T21:09:52.043Z,1.57
2022-08-22T21:13:02.821Z,1.77
2022-08-22T21:16:15.415Z,1.83
2022-08-22T21:19:19.834Z,1.80
2022-08-22T21:22:28.741Z,1.70
2022-08-22T21:25:31.863Z,2.40
2022-08-22T21:31:50.110Z,1.83
2022-08-22T21:34:53.185Z,1.90
2022-08-22T21:37:56.904Z,2.78
2022-08-22T21:41:05.304Z,1.67
2022-08-22T21:44:26.579Z,1.50
2022-08-22T21:47:33.158Z,1.63
2022-08-22T21:50:38.344Z,1.87
2022-08-22T21:53:40.999Z,1.50
2022-08-22T21:56:43.679Z,1.70
2022-08-22T22:03:03.060Z,1.60
2022-08-22T22:06:06.878Z,1.40
2022-08-22T22:09:13.259Z,1.40
2022-08-22T22:12:18.116Z,1.47
2022-08-22T22:15:23.318Z,1.60
2022-08-22T22:18:31.117Z,1.50
2022-08-22T22:21:33.814Z,1.50
2022-08-22T22:24:36.395Z,1.35
2022-08-22T22:27:39.057Z,1.67
2022-08-22T22:30:42.661Z,1.60
2022-08-22T22:33:46.634Z,1.73
2022-08-22T22:36:49.220Z,1.77
2022-08-22T22:39:51.780Z,1.75
2022-08-22T22:42:54.464Z,1.50
2022-08-22T22:45:57.111Z,1.42
2022-08-22T22:49:01.136Z,1.55
2022-08-22T22:52:04.240Z,1.50
2022-08-22T22:55:08.585Z,1.60
2022-08-22T22:58:13.520Z,1.60
2022-08-22T23:01:20.561Z,1.63
2022-08-22T23:04:24.556Z,1.50
2022-08-22T23:07:28.111Z,1.60
2022-08-22T23:10:32.468Z,1.40
2022-08-22T23:13:36.308Z,1.73
2022-08-22T23:16:44.442Z,1.57
2022-08-22T23:19:48.669Z,1.60
2022-08-22T23:22:51.432Z,1.70
2022-08-22T23:25:54.096Z,1.65
2022-08-22T23:28:57.339Z,2.10
2022-08-22T23:35:05.370Z,1.55
2022-08-22T23:38:08.016Z,1.77
2022-08-22T23:41:12.111Z,1.80
2022-08-22T23:44:16.393Z,1.30
2022-08-22T23:47:19.018Z,2.10
2022-08-22T23:50:23.109Z,1.85
2022-08-22T23:53:25.868Z,1.80
2022-08-22T23:56:30.814Z,1.70
2022-08-22T23:59:35.680Z,1.60
